Time;durP1;ratioP1;P1;durP2;ratioP2;P2;SDS_P1;SDS_P2;PMS_P1;PMS_P2;Temp;Humidity;BMP_temperature;BMP_pressure;BME280_temperature;BME280_humidity;BME280_pressure;Samples;Min_cycle;Max_cycle;Signal;HPM_P1;HPM_P2
2022/03/11 02:41:37;;;;;;;46.88;17.05;;;;;;;0.45;97.77;95039.97;6059333;23;20010;31
2022/03/11 02:44:03;;;;;;;45.63;17.35;;;;;;;0.27;100.00;95041.22;4905565;29;20449;-91
2022/03/11 02:46:28;;;;;;;51.53;17.08;;;;;;;0.19;100.00;95035.41;4922391;29;20032;-91
2022/03/11 02:48:54;;;;;;;44.10;15.50;;;;;;;0.35;100.00;95035.13;4922488;29;20036;-91
2022/03/11 02:51:20;;;;;;;39.55;15.57;;;;;;;0.57;100.00;95032.50;4906455;29;20030;-91
2022/03/11 02:53:45;;;;;;;41.65;15.57;;;;;;;0.65;100.00;95034.97;4906587;29;20040;-91
2022/03/11 02:56:11;;;;;;;41.22;15.18;;;;;;;0.71;100.00;95025.66;4922271;29;20027;-91
2022/03/11 02:58:39;;;;;;;38.42;15.40;;;;;;;0.82;99.49;95029.50;4922084;29;20028;-91
2022/03/11 03:01:05;;;;;;;34.72;14.38;;;;;;;0.63;100.00;95026.63;4921955;29;20341;-91
2022/03/11 03:03:30;;;;;;;32.53;13.32;;;;;;;0.55;100.00;95024.16;4922270;29;20027;-92
2022/03/11 03:05:56;;;;;;;38.38;15.25;;;;;;;0.50;100.00;95023.94;4906666;29;20027;-92
2022/03/11 03:08:21;;;;;;;39.53;15.65;;;;;;;0.67;98.48;95024.47;4938326;29;20027;-91
2022/03/11 03:10:47;;;;;;;35.80;13.48;;;;;;;0.59;92.73;95025.41;4906402;29;20035;-92
2022/03/11 03:13:13;;;;;;;37.55;14.38;;;;;;;0.53;95.24;95026.94;4906567;29;20039;-91
2022/03/11 03:15:39;;;;;;;42.60;15.95;;;;;;;0.50;93.84;95026.53;4922679;29;20023;-91
2022/03/11 03:18:05;;;;;;;38.17;14.35;;;;;;;0.40;94.80;95026.84;4921906;29;20034;-91
2022/03/11 03:20:30;;;;;;;40.80;15.52;;;;;;;0.19;100.00;95025.88;4921929;29;20024;-91
2022/03/11 03:22:56;;;;;;;36.25;14.38;;;;;;;0.09;100.00;95026.19;4937929;29;20429;-91
2022/03/11 03:25:21;;;;;;;40.22;15.68;;;;;;;0.07;100.00;95017.84;4924276;29;20437;-91
2022/03/11 03:27:47;;;;;;;41.97;16.15;;;;;;;0.00;100.00;95022.16;4925955;29;20035;-91
2022/03/11 03:30:12;;;;;;;38.47;15.55;;;;;;;-0.15;100.00;95020.41;4925779;29;20118;-91
2022/03/11 03:32:41;;;;;;;42.97;16.65;;;;;;;-0.15;100.00;95017.06;4941679;29;20032;-91
2022/03/11 03:35:08;;;;;;;42.20;15.80;;;;;;;-0.02;100.00;95018.94;4925686;29;20031;-91
2022/03/11 03:37:34;;;;;;;41.58;15.48;;;;;;;-0.13;100.00;95016.88;4925649;29;20031;-91
2022/03/11 03:39:59;;;;;;;39.45;15.32;;;;;;;-0.13;100.00;95016.88;4909999;29;20420;-91
2022/03/11 03:42:26;;;;;;;38.30;14.23;;;;;;;-0.26;100.00;95013.19;4941302;29;20106;-90
2022/03/11 03:44:53;;;;;;;45.17;16.08;;;;;;;-0.12;100.00;95018.47;4909912;29;20028;-90
2022/03/11 03:47:19;;;;;;;48.25;15.68;;;;;;;-0.25;100.00;95014.78;4910152;29;20500;-91
2022/03/11 03:49:45;;;;;;;45.20;15.13;;;;;;;-0.24;100.00;95006.09;4925298;29;20341;-91
2022/03/11 03:52:12;;;;;;;39.30;15.18;;;;;;;-0.02;100.00;95013.81;4909733;29;20035;-90
2022/03/11 03:54:41;;;;;;;35.92;14.82;;;;;;;-0.05;100.00;95012.41;4925291;29;20027;-90
2022/03/11 03:57:07;;;;;;;41.15;14.65;;;;;;;0.21;100.00;95023.13;4940934;29;20102;-91
2022/03/11 03:59:32;;;;;;;40.83;15.77;;;;;;;0.13;100.00;95029.22;4925350;29;20035;-91
2022/03/11 04:01:58;;;;;;;46.30;15.57;;;;;;;0.07;99.74;95024.78;4940932;29;20334;-91
2022/03/11 04:04:23;;;;;;;38.53;15.18;;;;;;;0.01;100.00;95026.34;4940873;29;20031;-91
2022/03/11 04:06:49;;;;;;;37.47;14.48;;;;;;;-0.11;100.00;95020.84;4925150;29;20460;-91
2022/03/11 04:09:14;;;;;;;42.33;16.08;;;;;;;-0.25;100.00;95019.94;4925077;29;20032;-91
2022/03/11 04:11:40;;;;;;;44.22;16.13;;;;;;;-0.14;100.00;95028.97;4924879;29;20433;-91
2022/03/11 04:14:06;;;;;;;43.03;16.83;;;;;;;-0.18;100.00;95030.31;4925057;29;20039;-90
2022/03/11 04:16:31;;;;;;;41.03;16.63;;;;;;;-0.17;100.00;95027.53;4909174;29;20027;-90
2022/03/11 04:18:57;;;;;;;50.55;16.85;;;;;;;-0.14;100.00;95028.97;4924892;29;20122;-91
2022/03/11 04:21:22;;;;;;;45.65;16.58;;;;;;;-0.39;100.00;95025.94;4909252;29;20063;-90
2022/03/11 04:23:49;;;;;;;46.42;15.88;;;;;;;-0.37;100.00;95019.59;4940781;29;20353;-91
2022/03/11 04:26:14;;;;;;;51.10;18.67;;;;;;;-0.14;100.00;95023.81;4909248;29;20495;-91
2022/03/11 04:28:40;;;;;;;49.45;17.23;;;;;;;0.06;100.00;95034.28;4924753;29;20059;-91
2022/03/11 04:31:09;;;;;;;45.55;17.27;;;;;;;-0.05;100.00;95029.63;4924331;29;20403;-90
2022/03/11 04:33:36;;;;;;;39.67;16.02;;;;;;;-0.24;100.00;95023.31;4924521;29;20034;-91
2022/03/11 04:36:03;;;;;;;48.15;17.60;;;;;;;-0.34;100.00;95028.75;4924470;29;20028;-91
2022/03/11 04:38:28;;;;;;;48.25;16.88;;;;;;;-0.46;100.00;95029.22;4924930;29;20032;-91
2022/03/11 04:40:54;;;;;;;46.80;16.67;;;;;;;-0.53;100.00;95035.28;4940260;29;20079;-91
2022/03/11 04:43:20;;;;;;;48.22;16.25;;;;;;;-0.54;100.00;95042.22;4940226;29;20034;-91
2022/03/11 04:45:45;;;;;;;48.38;17.83;;;;;;;-0.60;100.00;95038.59;4940189;29;20055;-91
2022/03/11 04:48:12;;;;;;;45.60;16.15;;;;;;;-0.39;100.00;95038.81;4908796;29;20023;-90
2022/03/11 04:50:38;;;;;;;46.47;17.02;;;;;;;-0.11;100.00;95041.47;4924311;29;20024;-91
2022/03/11 04:53:04;;;;;;;64.70;19.48;;;;;;;-0.12;100.00;95045.03;4940127;29;20467;-91
2022/03/11 04:55:29;;;;;;;48.15;17.92;;;;;;;-0.28;100.00;95040.91;4924350;29;20032;-90
2022/03/11 04:57:55;;;;;;;54.40;18.73;;;;;;;-0.20;100.00;95048.50;4924332;29;20028;-91
2022/03/11 05:00:20;;;;;;;47.00;17.48;;;;;;;-0.39;100.00;95046.53;4939926;29;20082;-90
2022/03/11 05:02:46;;;;;;;49.30;19.70;;;;;;;-0.38;100.00;95050.69;4958079;29;20054;-91
2022/03/11 05:05:12;;;;;;;55.90;20.15;;;;;;;-0.40;100.00;95044.94;4942953;29;20027;-91
2022/03/11 05:07:38;;;;;;;49.40;18.48;;;;;;;-0.67;100.00;95047.19;4942962;29;20105;-91
2022/03/11 05:10:08;;;;;;;57.40;20.65;;;;;;;-0.27;100.00;95039.13;4927004;29;20027;-91
2022/03/11 05:12:35;;;;;;;55.20;19.27;;;;;;;-0.27;100.00;95046.84;4923904;29;20036;-90
2022/03/11 05:15:01;;;;;;;49.35;18.42;;;;;;;-0.31;100.00;95046.41;4923966;29;20031;-91
2022/03/11 05:17:26;;;;;;;52.22;19.58;;;;;;;-0.51;100.00;95041.84;4939534;29;20027;-91
2022/03/11 05:19:52;;;;;;;57.97;20.95;;;;;;;-0.55;100.00;95047.53;4923444;29;20019;-90
2022/03/11 05:22:18;;;;;;;57.67;20.77;;;;;;;-0.66;100.00;95044.44;4939410;29;20033;-90
2022/03/11 05:24:43;;;;;;;56.42;20.02;;;;;;;-0.62;100.00;95047.44;4939475;29;20027;-91
2022/03/11 05:27:09;;;;;;;60.17;19.52;;;;;;;-0.78;100.00;95044.09;4939200;29;20023;-91
2022/03/11 05:29:35;;;;;;;53.72;20.80;;;;;;;-1.01;100.00;95045.00;4939203;29;20075;-91
2022/03/11 05:32:01;;;;;;;57.08;20.48;;;;;;;-0.93;100.00;95048.47;4907570;29;20130;-91
2022/03/11 05:34:26;;;;;;;56.53;20.95;;;;;;;-0.85;100.00;95048.38;4939104;29;20345;-91
2022/03/11 05:36:52;;;;;;;62.00;21.35;;;;;;;-1.02;100.00;95058.81;4939047;29;20028;-91
2022/03/11 05:39:17;;;;;;;55.20;20.45;;;;;;;-1.09;100.00;95060.53;4939118;29;20035;-91
2022/03/11 05:41:44;;;;;;;57.10;20.50;;;;;;;-1.00;100.00;95061.22;4955206;29;20448;-90
2022/03/11 05:44:10;;;;;;;55.17;19.58;;;;;;;-1.08;100.00;95062.13;4923050;29;20344;-90
2022/03/11 05:46:35;;;;;;;54.20;19.73;;;;;;;-0.84;100.00;95054.31;4922077;29;20118;-89
2022/03/11 05:49:01;;;;;;;59.90;21.65;;;;;;;-0.85;100.00;95066.41;4907398;29;20040;-89
2022/03/11 05:51:26;;;;;;;52.10;19.27;;;;;;;-0.69;100.00;95064.59;4907397;29;20082;-90
2022/03/11 05:53:51;;;;;;;48.17;18.92;;;;;;;-0.39;100.00;95067.13;4940003;29;20105;-90
2022/03/11 05:56:17;;;;;;;50.70;18.35;;;;;;;-0.43;100.00;95069.25;4923109;29;20031;-90
2022/03/11 05:58:42;;;;;;;53.42;18.75;;;;;;;-0.23;100.00;95072.06;4907364;29;20057;-90
2022/03/11 06:01:08;;;;;;;51.83;19.80;;;;;;;-0.24;100.00;95080.78;4908648;29;20480;-90
2022/03/11 06:03:33;;;;;;;59.65;20.25;;;;;;;-0.53;100.00;95081.59;4923321;29;20031;-91
2022/03/11 06:05:59;;;;;;;52.80;17.65;;;;;;;-0.60;100.00;95084.09;4939181;29;20034;-90
2022/03/11 06:08:24;;;;;;;54.50;19.42;;;;;;;-0.51;100.00;95085.63;4938871;29;20032;-90
2022/03/11 06:10:50;;;;;;;50.17;18.60;;;;;;;-0.33;100.00;95084.41;4938981;29;20034;-90
2022/03/11 06:13:16;;;;;;;51.30;19.48;;;;;;;-0.18;100.00;95092.91;4923040;29;20035;-91
2022/03/11 06:15:42;;;;;;;60.67;20.48;;;;;;;-0.04;100.00;95093.06;4910850;29;20345;-90
2022/03/11 06:18:08;;;;;;;52.72;17.67;;;;;;;0.01;100.00;95093.31;4903835;29;20039;-90
2022/03/11 06:20:35;;;;;;;54.40;18.63;;;;;;;0.10;100.00;95084.47;4903594;29;20030;-91
2022/03/11 06:23:00;;;;;;;57.15;19.60;;;;;;;0.23;100.00;95090.75;4918710;29;20035;-90
2022/03/11 06:25:26;;;;;;;51.55;19.42;;;;;;;0.35;100.00;95091.84;4922555;29;20095;-90
2022/03/11 06:27:51;;;;;;;52.47;19.30;;;;;;;0.53;100.00;95098.34;4938326;29;20042;-90
2022/03/11 06:30:17;;;;;;;53.47;19.83;;;;;;;0.61;100.00;95102.56;4922305;29;20035;-90
2022/03/11 06:32:47;;;;;;;49.40;19.20;;;;;;;0.60;100.00;95101.78;4954526;29;20039;-90
2022/03/11 06:35:13;;;;;;;47.58;18.17;;;;;;;0.61;100.00;95105.97;4922449;29;20031;-90
2022/03/11 06:37:44;;;;;;;53.67;19.45;;;;;;;0.76;100.00;95110.22;4938678;29;20032;-90
2022/03/11 06:40:10;;;;;;;57.03;20.30;;;;;;;0.95;100.00;95108.78;4938338;29;20306;-90
2022/03/11 06:42:43;;;;;;;47.78;19.45;;;;;;;1.01;100.00;95108.03;4938042;29;20072;-90
2022/03/11 06:45:10;;;;;;;50.17;19.45;;;;;;;1.18;100.00;95118.88;4936994;29;20031;-90
2022/03/11 06:47:35;;;;;;;47.28;18.95;;;;;;;1.24;100.00;95115.50;4922399;29;20040;-90
2022/03/11 06:50:01;;;;;;;49.35;18.48;;;;;;;1.32;100.00;95124.09;4906055;29;20058;-90
2022/03/11 06:52:27;;;;;;;52.08;19.67;;;;;;;1.13;100.00;95128.94;4938090;29;20441;-90
2022/03/11 06:54:52;;;;;;;44.35;18.20;;;;;;;1.17;100.00;95125.00;4906767;29;20032;-90
2022/03/11 06:57:18;;;;;;;51.08;19.08;;;;;;;1.36;100.00;95127.91;4906595;29;20042;-90
2022/03/11 06:59:45;;;;;;;47.97;17.73;;;;;;;1.39;100.00;95137.84;4938686;29;20035;-90
2022/03/11 07:02:10;;;;;;;46.72;17.45;;;;;;;1.58;100.00;95144.09;4941764;29;20460;-90
2022/03/11 07:04:36;;;;;;;48.15;19.05;;;;;;;1.72;100.00;95146.75;4910479;29;20031;-90
2022/03/11 07:07:01;;;;;;;50.08;19.35;;;;;;;1.86;100.00;95145.00;4942875;29;20035;-90
2022/03/11 07:09:27;;;;;;;53.38;18.88;;;;;;;1.84;100.00;95146.00;4925857;29;20036;-90
2022/03/11 07:11:57;;;;;;;49.38;18.70;;;;;;;1.94;100.00;95145.66;4909904;29;20036;-90
2022/03/11 07:14:23;;;;;;;48.75;18.75;;;;;;;2.17;100.00;95151.50;4910678;29;20039;-90
2022/03/11 07:16:52;;;;;;;42.35;17.35;;;;;;;2.18;100.00;95153.09;4925838;29;20027;-90
2022/03/11 07:19:18;;;;;;;50.47;18.10;;;;;;;2.38;100.00;95146.16;4910647;29;20032;-90
2022/03/11 07:21:43;;;;;;;42.50;17.40;;;;;;;2.52;100.00;95156.53;4940991;29;20401;-90
2022/03/11 07:24:09;;;;;;;47.30;18.13;;;;;;;2.56;100.00;95147.38;4941352;29;20330;-91
2022/03/11 07:26:34;;;;;;;45.13;18.27;;;;;;;2.71;100.00;95152.38;4925855;29;20036;-90
2022/03/11 07:29:01;;;;;;;50.55;19.17;;;;;;;2.79;100.00;95153.97;4909875;29;20031;-90
2022/03/11 07:31:26;;;;;;;45.67;18.15;;;;;;;2.83;100.00;95158.56;4925284;29;20425;-90
2022/03/11 07:33:52;;;;;;;40.80;17.55;;;;;;;2.86;100.00;95162.53;4909907;29;20038;-90
2022/03/11 07:36:17;;;;;;;40.95;17.42;;;;;;;2.92;100.00;95156.59;4910038;29;20031;-91
2022/03/11 07:38:43;;;;;;;42.83;17.92;;;;;;;2.99;100.00;95160.94;4925558;29;20038;-91
2022/03/11 07:41:11;;;;;;;47.13;19.42;;;;;;;2.76;100.00;95160.34;4924971;29;20433;-91
2022/03/11 07:43:36;;;;;;;54.17;19.20;;;;;;;2.74;100.00;95162.34;4925915;29;20031;-91
2022/03/11 07:46:02;;;;;;;45.13;17.55;;;;;;;2.90;98.21;95161.16;4909915;29;20035;-90
2022/03/11 07:48:28;;;;;;;45.70;18.75;;;;;;;2.71;100.00;95165.31;4909823;29;20137;-91
2022/03/11 07:50:53;;;;;;;44.92;18.83;;;;;;;2.78;100.00;95165.34;4924811;29;20151;-91
2022/03/11 07:53:20;;;;;;;48.58;19.67;;;;;;;3.02;100.00;95171.72;4909755;29;20031;-91
2022/03/11 07:55:46;;;;;;;46.83;18.42;;;;;;;2.93;100.00;95165.13;4925439;29;20027;-91
2022/03/11 07:58:11;;;;;;;44.67;18.52;;;;;;;2.92;100.00;95173.88;4925175;29;20115;-91
2022/03/11 08:00:41;;;;;;;51.70;18.40;;;;;;;3.03;100.00;95172.53;4909211;29;20059;-91
2022/03/11 08:03:06;;;;;;;50.28;19.05;;;;;;;3.07;100.00;95171.13;4925506;29;20074;-90
2022/03/11 08:05:32;;;;;;;47.30;19.77;;;;;;;3.17;100.00;95171.53;4940872;29;20028;-91
2022/03/11 08:07:57;;;;;;;45.40;18.95;;;;;;;3.20;100.00;95172.88;4925009;29;20027;-91
2022/03/11 08:10:23;;;;;;;46.75;18.80;;;;;;;3.15;100.00;95168.31;4923961;29;20030;-91
2022/03/11 08:12:50;;;;;;;47.60;19.35;;;;;;;3.29;100.00;95169.09;4909263;29;20042;-91
2022/03/11 08:15:17;;;;;;;48.50;19.80;;;;;;;3.37;100.00;95171.50;4909220;29;20126;-90
2022/03/11 08:17:43;;;;;;;49.08;19.20;;;;;;;3.53;100.00;95177.25;4924957;29;20443;-90
2022/03/11 08:20:10;;;;;;;43.45;18.80;;;;;;;3.80;100.00;95179.75;4924444;29;20122;-91
2022/03/11 08:22:35;;;;;;;50.08;19.50;;;;;;;3.80;100.00;95179.75;4940541;29;20060;-91
2022/03/11 08:25:01;;;;;;;50.28;18.48;;;;;;;4.01;96.77;95177.91;4924980;29;20448;-92
2022/03/11 08:27:27;;;;;;;44.92;19.23;;;;;;;4.30;100.00;95178.38;4940693;29;20523;-91
2022/03/11 08:29:53;;;;;;;43.40;18.02;;;;;;;4.31;100.00;95180.78;4924043;29;20032;-91
2022/03/11 08:32:19;;;;;;;39.28;17.55;;;;;;;4.42;100.00;95178.50;4909225;29;20036;-91
2022/03/11 08:34:44;;;;;;;42.13;16.65;;;;;;;4.63;93.91;95178.22;4925013;29;20031;-91
2022/03/11 08:37:10;;;;;;;42.75;17.38;;;;;;;4.76;94.40;95181.72;4940385;29;20100;-91
2022/03/11 08:39:35;;;;;;;38.75;17.08;;;;;;;4.83;97.35;95176.50;4941521;29;20054;-92
2022/03/11 08:42:01;;;;;;;46.78;17.33;;;;;;;4.90;98.08;95185.81;4908146;29;20500;-90
2022/03/11 08:44:27;;;;;;;39.28;17.15;;;;;;;4.75;92.19;95191.31;4908867;29;20031;-92
2022/03/11 08:46:52;;;;;;;38.55;15.48;;;;;;;5.11;90.19;95189.06;4940267;29;20038;-91
2022/03/11 08:49:18;;;;;;;36.78;16.15;;;;;;;5.10;88.35;95187.47;4907926;29;20443;-91
2022/03/11 08:51:43;;;;;;;39.00;16.48;;;;;;;5.09;90.71;95183.28;4922473;29;20023;-91
2022/03/11 08:54:09;;;;;;;38.33;16.85;;;;;;;5.10;93.21;95184.88;4922739;29;20039;-90
2022/03/11 08:56:34;;;;;;;40.47;16.73;;;;;;;4.99;99.14;95188.16;4922618;29;20337;-91
2022/03/11 08:59:00;;;;;;;39.80;16.58;;;;;;;5.16;100.00;95184.00;4907096;29;20028;-90
2022/03/11 09:01:25;;;;;;;41.25;17.92;;;;;;;5.29;100.00;95184.91;4907087;29;20023;-91
2022/03/11 09:03:51;;;;;;;42.53;17.63;;;;;;;5.26;100.00;95188.75;4906862;29;20071;-90
2022/03/11 09:06:16;;;;;;;43.85;17.25;;;;;;;5.19;92.08;95191.41;4922340;29;20031;-90
2022/03/11 09:08:42;;;;;;;37.75;14.63;;;;;;;5.50;92.42;95187.13;4922668;29;20448;-91
2022/03/11 09:11:08;;;;;;;32.83;13.35;;;;;;;5.46;92.15;95182.56;4921874;29;20195;-90
2022/03/11 09:13:33;;;;;;;40.80;15.23;;;;;;;5.59;96.31;95186.84;4922406;29;20122;-91
2022/03/11 09:15:59;;;;;;;30.98;13.93;;;;;;;5.71;90.25;95184.34;4922708;29;20121;-90
2022/03/11 09:18:24;;;;;;;37.90;14.02;;;;;;;5.87;86.78;95193.34;4922515;29;20042;-91
2022/03/11 09:20:50;;;;;;;32.70;14.00;;;;;;;5.86;87.05;95191.75;4922214;29;20357;-91
2022/03/11 09:23:15;;;;;;;31.50;13.65;;;;;;;6.03;98.98;95185.03;4921748;29;20032;-91
2022/03/11 09:25:41;;;;;;;36.05;14.70;;;;;;;6.03;91.83;95190.22;4922294;29;20039;-90
2022/03/11 09:28:07;;;;;;;31.95;13.45;;;;;;;5.86;89.44;95189.97;4906478;29;20039;-90
2022/03/11 09:30:32;;;;;;;33.10;14.50;;;;;;;6.07;93.83;95188.78;4922000;29;20091;-90
2022/03/11 09:32:58;;;;;;;32.35;12.93;;;;;;;6.11;78.46;95189.13;4921932;29;20437;-90
2022/03/11 09:35:23;;;;;;;35.25;14.27;;;;;;;6.08;87.69;95185.16;4938032;29;20400;-90
2022/03/11 09:37:49;;;;;;;36.80;14.55;;;;;;;6.02;82.18;95178.19;4906223;29;20035;-90
2022/03/11 09:40:16;;;;;;;34.03;13.73;;;;;;;5.84;79.77;95173.00;4921574;29;20094;-90
2022/03/11 09:42:42;;;;;;;35.05;13.63;;;;;;;6.28;84.84;95184.09;4937784;29;20035;-90
2022/03/11 09:45:08;;;;;;;32.33;14.18;;;;;;;6.27;81.95;95182.53;4937634;29;20027;-90
2022/03/11 09:47:34;;;;;;;33.60;13.82;;;;;;;6.41;86.71;95183.16;4906048;29;20034;-90
2022/03/11 09:49:59;;;;;;;33.88;14.32;;;;;;;6.51;83.63;95177.44;4921159;29;20306;-90
2022/03/11 09:52:25;;;;;;;31.30;15.10;;;;;;;6.52;78.79;95179.00;4922018;29;20040;-90
2022/03/11 09:54:51;;;;;;;33.13;14.57;;;;;;;6.38;81.78;95175.00;4937450;29;20431;-90
2022/03/11 09:57:18;;;;;;;32.85;14.60;;;;;;;6.47;83.79;95181.50;4921840;29;20039;-90
2022/03/11 09:59:44;;;;;;;34.78;15.63;;;;;;;6.61;90.29;95172.47;4936890;29;20114;-90
2022/03/11 10:02:17;;;;;;;31.52;14.88;;;;;;;6.58;85.59;95172.91;4905849;29;20142;-90
2022/03/11 10:04:50;;;;;;;36.22;14.88;;;;;;;6.53;77.08;95171.97;4921771;29;20028;-90
2022/03/11 10:07:29;;;;;;;31.75;14.80;;;;;;;6.50;79.01;95175.84;4905902;29;20031;-90
2022/03/11 10:09:56;;;;;;;30.80;14.40;;;;;;;6.56;82.28;95167.13;4920879;29;20072;-90
2022/03/11 10:12:29;;;;;;;35.10;14.63;;;;;;;6.62;75.60;95175.88;4937017;29;20032;-90
2022/03/11 10:15:00;;;;;;;30.08;14.88;;;;;;;6.46;80.82;95182.50;4937218;29;20102;-90
2022/03/11 10:17:26;;;;;;;33.33;15.10;;;;;;;6.56;79.78;95180.16;4937630;29;20071;-90
2022/03/11 10:20:04;;;;;;;33.25;15.10;;;;;;;6.67;83.02;95176.00;4921188;29;20142;-90
2022/03/11 10:22:31;;;;;;;33.97;15.30;;;;;;;6.90;76.71;95177.88;4922092;29;20035;-90
2022/03/11 10:25:01;;;;;;;30.90;14.38;;;;;;;6.86;78.25;95179.31;4921933;29;20042;-90
2022/03/11 10:27:26;;;;;;;25.38;14.02;;;;;;;7.06;77.56;95176.41;4922096;29;20032;-91
2022/03/11 10:29:56;;;;;;;33.78;16.33;;;;;;;6.75;80.04;95180.13;4937257;29;20038;-90
2022/03/11 10:32:24;;;;;;;32.75;14.75;;;;;;;6.62;76.24;95176.69;4920855;29;20071;-91
2022/03/11 10:34:49;;;;;;;39.05;14.77;;;;;;;6.49;77.48;95179.47;4921096;29;20028;-90
2022/03/11 10:37:16;;;;;;;29.48;14.48;;;;;;;6.82;77.88;95182.63;4937831;29;20046;-90
2022/03/11 10:39:46;;;;;;;35.15;15.07;;;;;;;6.77;76.22;95172.88;4922310;29;20032;-90
2022/03/11 10:42:12;;;;;;;27.25;13.60;;;;;;;6.55;77.39;95173.34;4938164;29;20032;-90
2022/03/11 10:44:39;;;;;;;30.33;14.57;;;;;;;6.33;76.58;95168.66;4922707;29;20038;-90
2022/03/11 10:47:20;;;;;;;29.17;14.43;;;;;;;6.42;78.19;95169.13;4906758;29;20354;-91
2022/03/11 10:49:50;;;;;;;27.27;13.88;;;;;;;6.89;88.54;95163.28;4937699;29;20032;-90
2022/03/11 10:52:31;;;;;;;30.67;15.23;;;;;;;7.01;78.77;95167.69;4906725;29;20035;-90
2022/03/11 10:54:58;;;;;;;32.90;15.15;;;;;;;6.79;79.39;95184.63;4922403;29;20405;-90
2022/03/11 10:57:36;;;;;;;30.35;14.68;;;;;;;6.79;77.37;95173.44;4922347;29;20058;-90
2022/03/11 11:00:21;;;;;;;26.73;12.70;;;;;;;6.86;74.65;95178.53;4921773;29;20024;-90
2022/03/11 11:02:54;;;;;;;33.50;15.55;;;;;;;6.83;77.68;95171.97;4922333;29;20040;-91
2022/03/11 11:05:21;;;;;;;30.90;15.02;;;;;;;6.75;80.91;95167.88;4922115;29;20087;-90
2022/03/11 11:07:46;;;;;;;35.03;16.60;;;;;;;7.18;99.50;95157.41;4921819;29;20032;-90
2022/03/11 11:10:14;;;;;;;27.33;14.15;;;;;;;7.07;75.71;95157.16;4936594;29;20032;-90
2022/03/11 11:12:41;;;;;;;29.33;12.90;;;;;;;7.10;74.31;95160.31;4906322;29;20054;-90
2022/03/11 11:15:07;;;;;;;30.52;11.98;;;;;;;6.72;76.36;95157.91;4906641;29;20492;-90
2022/03/11 11:17:36;;;;;;;26.52;12.02;;;;;;;6.78;77.13;95166.63;4906549;29;20035;-90
2022/03/11 11:20:04;;;;;;;27.25;12.70;;;;;;;7.02;89.66;95158.84;4906176;29;20532;-90
2022/03/11 11:22:30;;;;;;;29.10;12.82;;;;;;;7.18;78.92;95157.41;4922117;29;20032;-90
2022/03/11 11:24:56;;;;;;;26.55;11.05;;;;;;;7.88;83.57;95154.97;4922262;29;20123;-90
2022/03/11 11:27:22;;;;;;;21.02;11.00;;;;;;;7.66;70.75;95160.00;4921909;29;20428;-89
2022/03/11 11:29:49;;;;;;;23.73;10.68;;;;;;;7.84;69.43;95159.88;4938793;29;20047;-91
2022/03/11 11:32:17;;;;;;;24.90;10.65;;;;;;;7.77;66.68;95157.38;4922192;29;20040;-90
2022/03/11 11:34:42;;;;;;;19.17;10.38;;;;;;;7.73;66.44;95160.69;4922466;29;20032;-90
2022/03/11 11:37:37;;;;;;;21.00;10.43;;;;;;;7.24;70.23;95161.69;4920469;29;20069;-91
2022/03/11 11:40:23;;;;;;;18.98;9.77;;;;;;;7.62;66.05;95152.63;4921778;29;20328;-90
2022/03/11 11:43:11;;;;;;;18.05;9.88;;;;;;;7.70;69.15;95135.84;4937708;29;20083;-90
2022/03/11 11:45:44;;;;;;;16.73;8.82;;;;;;;7.38;64.47;95144.03;4914055;29;20054;-90
2022/03/11 11:48:48;;;;;;;20.70;9.38;;;;;;;7.87;66.44;95141.13;4941196;29;20492;-90
2022/03/11 11:51:16;;;;;;;18.02;8.77;;;;;;;8.15;60.71;95142.19;4934822;29;20365;-90
2022/03/11 11:54:08;;;;;;;15.65;8.77;;;;;;;8.41;67.78;95128.81;4925646;29;20043;-90
2022/03/11 11:56:46;;;;;;;20.25;8.98;;;;;;;9.02;67.06;95128.25;4941535;29;20163;-91
2022/03/11 11:59:29;;;;;;;14.82;8.48;;;;;;;9.35;63.33;95131.91;4909266;29;20039;-91
2022/03/11 12:01:59;;;;;;;18.42;8.10;;;;;;;8.74;57.16;95120.25;4924999;29;20032;-90
2022/03/11 12:04:34;;;;;;;16.23;8.60;;;;;;;8.38;57.65;95108.41;4925066;29;20035;-91
2022/03/11 12:07:02;;;;;;;19.73;8.63;;;;;;;8.79;61.98;95109.09;4909552;29;20043;-91
2022/03/11 12:09:40;;;;;;;18.77;8.80;;;;;;;9.05;59.32;95106.91;4925262;29;20035;-91
2022/03/11 12:12:06;;;;;;;18.10;8.95;;;;;;;9.12;56.96;95109.34;4925180;29;20028;-91
2022/03/11 12:14:33;;;;;;;18.30;8.48;;;;;;;8.91;61.64;95112.44;4925414;29;20023;-91
2022/03/11 12:17:06;;;;;;;18.30;8.65;;;;;;;9.10;58.46;95111.38;4924956;29;20030;-91
2022/03/11 12:19:44;;;;;;;17.25;8.38;;;;;;;9.05;59.25;95112.91;4924915;29;20027;-90
2022/03/11 12:22:31;;;;;;;18.80;9.57;;;;;;;9.13;59.28;95116.94;4924825;29;20020;-91
2022/03/11 12:25:05;;;;;;;16.30;8.20;;;;;;;9.32;55.67;95114.84;4924831;29;20028;-91
2022/03/11 12:27:58;;;;;;;17.90;9.10;;;;;;;8.55;54.43;95111.84;4925134;29;20337;-91
2022/03/11 12:30:25;;;;;;;24.50;10.15;;;;;;;8.78;56.75;95102.31;4924399;29;20130;-91
2022/03/11 12:32:52;;;;;;;18.67;8.50;;;;;;;8.88;54.77;95102.44;4924336;29;20031;-91
2022/03/11 12:35:19;;;;;;;21.95;9.63;;;;;;;8.92;54.29;95097.53;4940363;29;20028;-91
2022/03/11 12:37:44;;;;;;;19.00;9.55;;;;;;;9.01;55.58;95109.19;4924693;29;20078;-91
2022/03/11 12:40:10;;;;;;;21.60;9.70;;;;;;;9.32;52.67;95114.06;4924173;29;20058;-91
2022/03/11 12:42:40;;;;;;;15.57;9.05;;;;;;;9.40;51.67;95118.09;4940193;29;20035;-91
2022/03/11 12:45:06;;;;;;;17.92;9.68;;;;;;;8.80;53.10;95100.25;4924538;29;20032;-91
2022/03/11 12:47:39;;;;;;;24.58;10.55;;;;;;;8.99;52.61;95103.41;4908856;29;20027;-91
2022/03/11 12:50:07;;;;;;;27.47;11.67;;;;;;;9.45;53.23;95095.41;4939689;29;20031;-91
2022/03/11 12:52:40;;;;;;;22.52;10.52;;;;;;;8.85;52.13;95091.69;4908757;29;20646;-90
2022/03/11 12:55:33;;;;;;;17.27;10.07;;;;;;;8.52;53.11;95088.00;4939935;29;20130;-91
2022/03/11 12:58:10;;;;;;;25.43;12.40;;;;;;;8.52;53.09;95088.81;4923253;29;20030;-91
2022/03/11 13:00:38;;;;;;;24.67;12.50;;;;;;;8.96;52.54;95076.94;4924181;29;20720;-91
2022/03/11 13:03:10;;;;;;;22.08;10.85;;;;;;;9.09;52.56;95084.47;4947804;29;20085;-91
2022/03/11 13:05:37;;;;;;;26.13;13.20;;;;;;;8.70;54.07;95066.09;4927665;29;20055;-96
2022/03/11 13:08:08;;;;;;;20.75;10.82;;;;;;;8.43;53.28;95064.88;4928067;29;20023;-91
2022/03/11 13:10:34;;;;;;;20.55;11.00;;;;;;;8.34;54.40;95067.09;4926715;29;20086;-90
2022/03/11 13:13:01;;;;;;;21.08;11.10;;;;;;;8.99;55.29;95066.00;4927181;29;20133;-91
2022/03/11 13:15:29;;;;;;;23.35;11.82;;;;;;;9.22;52.31;95069.47;4943022;29;20047;-91
2022/03/11 13:17:58;;;;;;;29.55;17.58;;;;;;;9.27;54.67;95066.91;4943155;29;20099;-91
2022/03/11 13:20:42;;;;;;;17.83;9.57;;;;;;;9.46;52.29;95057.75;4942515;29;20027;-91
2022/03/11 13:23:23;;;;;;;23.02;10.68;;;;;;;8.84;52.50;95053.53;4943191;29;20122;-91
2022/03/11 13:25:49;;;;;;;19.40;11.10;;;;;;;8.92;53.26;95063.56;4927172;29;20039;-91
2022/03/11 13:28:28;;;;;;;24.00;11.77;;;;;;;9.53;52.33;95059.41;4959760;29;20113;-91
2022/03/11 13:30:57;;;;;;;22.20;10.73;;;;;;;9.43;53.57;95068.69;4942158;29;20034;-90
2022/03/11 13:33:27;;;;;;;21.52;11.15;;;;;;;9.19;51.63;95075.97;4927059;29;20031;-91
2022/03/11 13:36:10;;;;;;;21.95;10.63;;;;;;;9.46;53.92;95067.44;4942664;29;20125;-91
2022/03/11 13:38:44;;;;;;;24.80;11.15;;;;;;;9.70;55.60;95072.44;4943194;29;20031;-91
2022/03/11 13:41:12;;;;;;;20.35;11.05;;;;;;;9.29;51.28;95070.09;4922675;29;20035;-91
2022/03/11 13:43:37;;;;;;;27.35;9.93;;;;;;;10.06;50.21;95061.56;4907371;29;20039;-90
2022/03/11 13:46:04;;;;;;;22.98;11.02;;;;;;;9.58;52.11;95062.88;4923132;29;20346;-91
2022/03/11 13:48:39;;;;;;;24.77;10.90;;;;;;;9.54;50.94;95063.59;4916097;29;20035;-93
2022/03/11 13:51:07;;;;;;;21.30;11.00;;;;;;;9.97;51.20;95063.81;4907402;29;20032;-92
2022/03/11 13:53:33;;;;;;;23.63;10.75;;;;;;;10.25;50.40;95064.63;4907313;29;20437;-90
2022/03/11 13:56:01;;;;;;;22.15;10.98;;;;;;;10.43;49.60;95072.19;4917265;29;20038;-91
2022/03/11 13:58:27;;;;;;;20.08;11.07;;;;;;;10.18;50.60;95067.44;4919066;29;20039;-91
2022/03/11 14:00:53;;;;;;;20.75;11.02;;;;;;;9.36;50.90;95065.50;4923234;29;20024;-92
2022/03/11 14:03:20;;;;;;;19.10;10.95;;;;;;;9.10;51.52;95066.94;4922898;29;20433;-91